createdAt,value
2023-11-13T00:02:33.654Z,13.60
2023-11-13T00:05:12.643Z,14.10
2023-11-13T00:07:47.360Z,13.90
2023-11-13T00:10:23.994Z,13.10
2023-11-13T00:13:03.602Z,11.80
2023-11-13T00:16:13.008Z,13.60
2023-11-13T00:19:13.092Z,13.30
2023-11-13T00:22:32.931Z,11.20
2023-11-13T00:25:50.003Z,12.00
2023-11-13T00:28:43.710Z,13.60
2023-11-13T00:31:17.533Z,11.80
2023-11-13T00:33:51.277Z,12.40
2023-11-13T00:36:24.867Z,14.00
2023-11-13T00:38:58.535Z,12.40
2023-11-13T00:41:36.205Z,14.00
2023-11-13T00:44:23.958Z,11.30
2023-11-13T00:46:58.309Z,13.40
2023-11-13T00:49:32.296Z,11.50
2023-11-13T00:52:06.463Z,12.00
2023-11-13T00:54:39.975Z,13.30
2023-11-13T00:57:13.414Z,12.60
2023-11-13T00:59:47.574Z,15.10
2023-11-13T01:02:23.213Z,11.90
2023-11-13T01:04:56.684Z,10.70
2023-11-13T01:07:30.370Z,13.00
2023-11-13T01:10:05.571Z,12.40
2023-11-13T01:12:39.291Z,11.40
2023-11-13T01:15:14.328Z,10.40
2023-11-13T01:17:48.042Z,13.00
2023-11-13T01:20:21.801Z,10.90
2023-11-13T01:22:55.776Z,12.00
2023-11-13T01:25:29.573Z,11.30
2023-11-13T01:28:04.164Z,9.60
2023-11-13T01:30:38.006Z,10.30
2023-11-13T01:33:12.330Z,11.60
2023-11-13T01:35:46.278Z,11.20
2023-11-13T01:38:20.450Z,9.50
2023-11-13T01:40:55.368Z,8.80
2023-11-13T01:43:29.673Z,9.20
2023-11-13T01:46:04.991Z,8.80
2023-11-13T01:48:38.811Z,9.70
2023-11-13T01:51:12.513Z,10.70
2023-11-13T01:53:46.476Z,9.20
2023-11-13T01:56:21.904Z,9.70
2023-11-13T01:58:56.973Z,9.40
2023-11-13T02:01:32.406Z,8.70
2023-11-13T02:04:06.106Z,7.90
2023-11-13T02:06:39.746Z,9.00
2023-11-13T02:09:15.590Z,10.60
2023-11-13T02:11:49.321Z,10.40
2023-11-13T02:14:23.089Z,8.60
2023-11-13T02:17:06.426Z,10.30
2023-11-13T02:19:40.030Z,9.40
2023-11-13T02:22:13.622Z,9.80
2023-11-13T02:24:47.188Z,8.30
2023-11-13T02:27:23.454Z,8.30
2023-11-13T02:29:56.931Z,9.70
2023-11-13T02:32:31.591Z,9.30
2023-11-13T02:35:06.017Z,9.40
2023-11-13T02:37:39.448Z,8.00
2023-11-13T02:40:14.958Z,9.00
2023-11-13T02:42:48.440Z,8.90
2023-11-13T02:45:24.297Z,10.10
2023-11-13T02:47:57.824Z,7.90
2023-11-13T02:50:33.067Z,6.90
2023-11-13T02:53:06.741Z,6.70
2023-11-13T02:55:40.190Z,7.50
2023-11-13T02:58:13.724Z,9.40
2023-11-13T03:00:48.439Z,7.50
2023-11-13T03:03:26.487Z,9.60
2023-11-13T03:06:00.902Z,6.90
2023-11-13T03:08:34.461Z,8.60
2023-11-13T03:11:08.248Z,7.20
2023-11-13T03:13:42.341Z,7.90
2023-11-13T03:16:17.178Z,7.60
2023-11-13T03:18:50.711Z,9.60
2023-11-13T03:21:24.810Z,7.20
2023-11-13T03:23:58.283Z,7.70
2023-11-13T03:26:31.729Z,7.80
2023-11-13T03:29:05.308Z,7.50
2023-11-13T03:32:04.845Z,7.90
2023-11-13T03:35:21.900Z,9.30
2023-11-13T03:39:01.318Z,7.10
2023-11-13T03:42:40.724Z,5.50
2023-11-13T03:46:20.254Z,6.10
2023-11-13T03:49:59.705Z,5.80
2023-11-13T03:53:39.036Z,6.70
2023-11-13T03:57:18.574Z,6.60
2023-11-13T04:00:57.967Z,7.30
2023-11-13T04:04:38.372Z,6.80
2023-11-13T04:08:17.738Z,5.60
2023-11-13T04:11:57.872Z,7.00
2023-11-13T04:15:39.416Z,6.90
2023-11-13T04:19:15.793Z,6.00
2023-11-13T04:22:17.757Z,5.90
2023-11-13T04:24:51.471Z,8.80
2023-11-13T04:27:25.059Z,6.00
2023-11-13T04:29:59.903Z,6.00
2023-11-13T04:32:33.827Z,6.40
2023-11-13T04:35:08.418Z,6.70
2023-11-13T04:37:41.965Z,5.90
2023-11-13T04:40:17.973Z,7.20
2023-11-13T04:42:51.960Z,6.80
2023-11-13T04:45:25.434Z,9.80
2023-11-13T04:47:58.874Z,5.20
2023-11-13T04:50:32.596Z,6.80
2023-11-13T04:53:08.235Z,5.80
2023-11-13T04:55:41.803Z,7.00
2023-11-13T04:58:15.315Z,5.00
2023-11-13T05:00:48.945Z,5.00
2023-11-13T05:03:22.410Z,4.90
2023-11-13T05:05:56.025Z,5.80
2023-11-13T05:08:30.121Z,5.70
2023-11-13T05:11:03.989Z,4.90
2023-11-13T05:13:38.436Z,5.00
2023-11-13T05:16:17.664Z,6.30
2023-11-13T05:18:52.966Z,5.80
2023-11-13T05:21:27.375Z,6.10
2023-11-13T05:24:00.996Z,5.60
2023-11-13T05:26:34.983Z,6.50
2023-11-13T05:29:32.428Z,7.00
2023-11-13T05:32:43.420Z,5.40
2023-11-13T05:35:36.412Z,5.40
2023-11-13T05:38:23.163Z,5.10
2023-11-13T05:41:56.268Z,11.00
2023-11-13T05:44:58.450Z,7.60
2023-11-13T05:47:53.442Z,5.70
2023-11-13T05:50:55.728Z,5.80
2023-11-13T05:53:58.379Z,7.60
2023-11-13T05:56:54.813Z,6.40
2023-11-13T05:59:50.042Z,5.90
2023-11-13T06:02:25.224Z,8.80
2023-11-13T06:05:07.387Z,5.00
2023-11-13T06:07:57.378Z,7.10
2023-11-13T06:10:46.022Z,5.40
2023-11-13T06:16:28.841Z,5.20
2023-11-13T06:19:08.524Z,5.30
2023-11-13T06:21:43.172Z,6.00
2023-11-13T06:24:17.224Z,4.50
2023-11-13T06:26:50.804Z,5.10
2023-11-13T06:29:26.730Z,5.70
2023-11-13T06:32:00.782Z,5.30
2023-11-13T06:34:34.275Z,5.00
2023-11-13T06:37:07.828Z,6.70
2023-11-13T06:39:42.527Z,5.20
2023-11-13T06:42:16.053Z,5.80
2023-11-13T06:44:49.465Z,4.10
2023-11-13T06:47:22.916Z,4.60
2023-11-13T06:49:56.575Z,5.10
2023-11-13T06:52:32.685Z,5.40
2023-11-13T06:55:06.798Z,4.90
2023-11-13T06:57:40.825Z,5.60
2023-11-13T07:00:18.079Z,4.00
2023-11-13T07:02:53.023Z,4.10
2023-11-13T07:05:27.012Z,3.70
2023-11-13T07:08:00.512Z,4.60
2023-11-13T07:10:37.217Z,4.80
2023-11-13T07:13:12.060Z,8.10
2023-11-13T07:15:46.081Z,4.50
2023-11-13T07:18:20.023Z,5.20
2023-11-13T07:20:54.203Z,5.70
2023-11-13T07:23:30.051Z,3.40
2023-11-13T07:26:06.013Z,5.40
2023-11-13T07:28:39.895Z,5.00
2023-11-13T07:31:15.351Z,5.70
2023-11-13T07:33:48.896Z,4.40
2023-11-13T07:36:22.369Z,4.60
2023-11-13T07:38:55.885Z,4.30
2023-11-13T07:41:34.533Z,4.20
2023-11-13T07:44:09.417Z,3.70
2023-11-13T07:46:43.151Z,5.40
2023-11-13T07:49:17.948Z,5.00
2023-11-13T07:51:51.412Z,8.10
2023-11-13T07:54:26.686Z,5.90
2023-11-13T07:57:00.887Z,4.80
2023-11-13T07:59:35.435Z,5.20
2023-11-13T08:02:10.726Z,5.40
2023-11-13T08:04:44.419Z,4.90
2023-11-13T08:07:25.264Z,5.60
2023-11-13T08:10:02.363Z,4.90
2023-11-13T08:12:36.020Z,5.20
2023-11-13T08:15:13.704Z,4.20
2023-11-13T08:17:50.884Z,4.20
2023-11-13T08:20:27.881Z,4.80
2023-11-13T08:23:02.059Z,5.30
2023-11-13T08:25:38.727Z,6.00
2023-11-13T08:28:12.876Z,3.30
2023-11-13T08:30:47.475Z,6.40
2023-11-13T08:33:21.559Z,3.80
2023-11-13T08:35:56.330Z,4.40
2023-11-13T08:38:40.915Z,4.10
2023-11-13T08:41:20.143Z,4.40
2023-11-13T08:43:56.331Z,3.80
2023-11-13T08:46:31.538Z,4.10
2023-11-13T08:49:07.689Z,6.40
2023-11-13T08:51:41.921Z,7.90
2023-11-13T08:54:20.481Z,10.10
2023-11-13T08:56:57.832Z,7.70
2023-11-13T08:59:32.610Z,8.20
2023-11-13T09:02:08.224Z,8.30
2023-11-13T09:04:45.061Z,7.80
2023-11-13T09:07:18.980Z,13.70
2023-11-13T09:09:56.235Z,8.70
2023-11-13T09:12:31.669Z,9.20
2023-11-13T09:15:05.699Z,11.00
2023-11-13T09:17:42.741Z,9.30
2023-11-13T09:20:20.573Z,9.80
2023-11-13T09:22:54.845Z,9.20
2023-11-13T09:25:29.875Z,7.20
2023-11-13T09:28:03.961Z,10.40
2023-11-13T09:30:38.414Z,9.40
2023-11-13T09:33:13.102Z,12.80
2023-11-13T09:35:49.573Z,12.20
2023-11-13T09:38:24.201Z,10.20
2023-11-13T09:41:08.346Z,9.00
2023-11-13T09:43:43.347Z,8.30
2023-11-13T09:46:21.776Z,7.90
2023-11-13T09:48:59.559Z,10.00
2023-11-13T09:51:47.622Z,9.10
2023-11-13T09:55:01.426Z,9.20
2023-11-13T09:58:01.417Z,8.60
2023-11-13T10:01:09.095Z,11.20
2023-11-13T10:03:54.573Z,10.50
2023-11-13T10:06:51.204Z,8.90
2023-11-13T10:09:31.785Z,9.50
2023-11-13T10:12:33.626Z,9.50
2023-11-13T10:15:13.814Z,9.80
2023-11-13T10:18:01.470Z,7.20
2023-11-13T10:21:01.472Z,11.80
2023-11-13T10:23:48.440Z,7.40
2023-11-13T10:26:51.427Z,8.70
2023-11-13T10:30:08.115Z,7.90
2023-11-13T10:36:35.949Z,7.70
2023-11-13T10:39:56.400Z,9.70
2023-11-13T10:43:09.919Z,7.10
2023-11-13T10:45:56.738Z,12.00
2023-11-13T10:52:35.323Z,8.10
2023-11-13T10:55:31.491Z,6.00
2023-11-13T10:58:34.248Z,6.60
2023-11-13T11:01:34.619Z,6.40
2023-11-13T11:04:33.819Z,6.50
2023-11-13T11:07:29.790Z,7.70
2023-11-13T11:10:14.118Z,9.00
2023-11-13T11:12:56.431Z,6.30
2023-11-13T11:15:58.016Z,8.60
2023-11-13T11:18:44.215Z,7.20
2023-11-13T11:21:40.374Z,7.40
2023-11-13T11:24:22.733Z,6.70
2023-11-13T11:27:00.139Z,7.70
2023-11-13T11:29:41.984Z,7.80
2023-11-13T11:32:25.318Z,7.70
2023-11-13T11:35:04.144Z,8.40
2023-11-13T11:37:38.993Z,8.80
2023-11-13T11:40:16.167Z,8.70
2023-11-13T11:42:52.036Z,8.70
2023-11-13T11:45:28.953Z,7.80
2023-11-13T11:48:06.530Z,6.10
2023-11-13T11:50:43.067Z,7.40
2023-11-13T11:53:21.614Z,6.90
2023-11-13T11:58:49.082Z,7.40
2023-11-13T12:01:29.499Z,5.60
2023-11-13T12:04:05.431Z,5.80
2023-11-13T12:06:40.496Z,8.90
2023-11-13T12:09:14.723Z,8.80
2023-11-13T12:11:50.330Z,8.10
2023-11-13T12:14:24.766Z,8.60
2023-11-13T12:16:58.876Z,9.00
2023-11-13T12:19:32.707Z,58.80
2023-11-13T12:22:07.144Z,33.70
2023-11-13T12:24:41.505Z,26.50
2023-11-13T12:27:30.623Z,23.30
2023-11-13T12:30:16.350Z,18.60
2023-11-13T12:32:51.465Z,24.30
2023-11-13T12:35:26.268Z,15.30
2023-11-13T12:38:00.152Z,19.30
2023-11-13T12:40:35.778Z,14.20
2023-11-13T12:43:09.735Z,14.70
2023-11-13T12:45:43.458Z,11.70
2023-11-13T12:48:23.987Z,12.50
2023-11-13T12:51:02.407Z,12.30
2023-11-13T12:53:36.601Z,13.00
2023-11-13T12:56:11.866Z,11.10
2023-11-13T12:58:51.726Z,10.60
2023-11-13T13:01:25.608Z,10.10
2023-11-13T13:04:00.028Z,10.30
2023-11-13T13:06:39.056Z,9.50
2023-11-13T13:09:14.965Z,13.40
2023-11-13T13:11:50.303Z,12.30
2023-11-13T13:14:24.843Z,12.60
2023-11-13T13:17:01.554Z,9.10
2023-11-13T13:19:39.605Z,11.10
2023-11-13T13:22:14.225Z,9.60
2023-11-13T13:27:42.632Z,10.90
2023-11-13T13:30:53.634Z,10.00
2023-11-13T13:33:52.742Z,10.40
2023-11-13T13:36:44.639Z,8.50
2023-11-13T13:39:52.435Z,9.40
2023-11-13T13:42:41.696Z,9.50
2023-11-13T13:45:51.495Z,7.40
2023-11-13T13:51:55.401Z,8.60
2023-11-13T13:54:59.464Z,8.90
2023-11-13T13:57:50.701Z,7.80
2023-11-13T14:01:01.494Z,6.70
2023-11-13T14:04:14.567Z,9.30
2023-11-13T14:07:00.638Z,7.10
2023-11-13T14:09:34.511Z,10.70
2023-11-13T14:12:18.759Z,6.30
2023-11-13T14:18:15.752Z,7.20
2023-11-13T14:20:53.539Z,8.10
2023-11-13T14:23:32.829Z,7.80
2023-11-13T14:26:17.734Z,6.70
2023-11-13T14:28:59.446Z,6.70
2023-11-13T14:31:35.068Z,7.80
2023-11-13T14:34:09.484Z,5.30
2023-11-13T14:36:44.641Z,7.30
2023-11-13T14:39:22.173Z,5.90
2023-11-13T14:41:56.250Z,5.80
2023-11-13T14:44:30.173Z,6.00
2023-11-13T14:47:05.289Z,11.10
2023-11-13T14:49:39.738Z,6.30
2023-11-13T14:52:24.406Z,10.90
2023-11-13T14:55:14.904Z,7.90
2023-11-13T14:57:52.160Z,11.10
2023-11-13T15:00:28.493Z,11.00
2023-11-13T15:03:04.613Z,8.50
2023-11-13T15:05:40.633Z,12.30
2023-11-13T15:08:15.729Z,13.20
2023-11-13T15:10:52.831Z,11.30
2023-11-13T15:13:26.876Z,10.00
2023-11-13T15:16:03.070Z,13.20
2023-11-13T15:18:47.531Z,14.50
2023-11-13T15:21:27.601Z,17.00
2023-11-13T15:24:06.538Z,16.50
2023-11-13T15:26:42.012Z,17.90
2023-11-13T15:29:26.827Z,31.30
2023-11-13T15:32:01.573Z,31.60
2023-11-13T15:34:36.639Z,28.80
2023-11-13T15:37:12.340Z,24.50
2023-11-13T15:39:46.273Z,21.50
2023-11-13T15:42:21.258Z,24.10
2023-11-13T15:44:55.612Z,19.30
2023-11-13T15:47:30.464Z,19.30
2023-11-13T15:50:07.250Z,24.10
2023-11-13T15:52:44.930Z,20.80
2023-11-13T15:55:19.924Z,20.50
2023-11-13T15:57:55.123Z,23.70
2023-11-13T16:00:30.391Z,26.60
2023-11-13T16:03:07.829Z,22.20
2023-11-13T16:05:41.994Z,26.00
2023-11-13T16:08:18.513Z,23.40
2023-11-13T16:10:52.383Z,32.50
2023-11-13T16:13:27.012Z,24.80
2023-11-13T16:16:01.013Z,26.10
2023-11-13T16:18:40.422Z,25.10
2023-11-13T16:21:18.540Z,31.10
2023-11-13T16:23:59.175Z,38.10
2023-11-13T16:26:55.841Z,26.50
2023-11-13T16:29:30.184Z,36.40
2023-11-13T16:32:05.728Z,33.00
2023-11-13T16:34:40.547Z,46.50
2023-11-13T16:37:14.498Z,41.10
2023-11-13T16:39:48.074Z,42.30
2023-11-13T16:42:21.607Z,38.50
2023-11-13T16:44:55.389Z,39.20
2023-11-13T16:47:34.417Z,42.40
2023-11-13T16:50:10.433Z,45.40
2023-11-13T16:52:44.220Z,41.00
2023-11-13T16:55:18.719Z,41.80
2023-11-13T16:57:53.594Z,46.70
2023-11-13T17:00:27.803Z,45.00
2023-11-13T17:03:01.852Z,47.10
2023-11-13T17:05:37.500Z,54.20
2023-11-13T17:08:11.902Z,58.80
2023-11-13T17:10:46.393Z,56.30
2023-11-13T17:13:20.483Z,48.00
2023-11-13T17:15:54.590Z,48.50
2023-11-13T17:18:29.032Z,43.40
2023-11-13T17:21:04.755Z,46.20
2023-11-13T17:23:39.024Z,49.90
2023-11-13T17:26:13.170Z,45.20
2023-11-13T17:28:47.289Z,40.80
2023-11-13T17:31:24.229Z,42.10
2023-11-13T17:33:58.018Z,43.90
2023-11-13T17:36:33.651Z,44.40
2023-11-13T17:39:08.889Z,47.10
2023-11-13T17:41:44.053Z,42.70
2023-11-13T17:44:20.782Z,47.20
2023-11-13T17:46:54.674Z,46.20
2023-11-13T17:49:29.080Z,50.30
2023-11-13T17:52:04.850Z,51.50
2023-11-13T17:54:39.198Z,48.90
2023-11-13T17:57:15.204Z,49.30
2023-11-13T17:59:50.695Z,51.00
2023-11-13T18:02:26.494Z,50.60
2023-11-13T18:05:00.563Z,54.10
2023-11-13T18:07:34.672Z,58.30
2023-11-13T18:10:11.047Z,58.40
2023-11-13T18:12:45.795Z,61.40
2023-11-13T18:15:19.295Z,54.20
2023-11-13T18:17:52.974Z,62.80
2023-11-13T18:20:29.776Z,59.70
2023-11-13T18:23:10.076Z,60.90
2023-11-13T18:26:01.297Z,57.20
2023-11-13T18:28:36.203Z,61.10
2023-11-13T18:31:11.280Z,65.10
2023-11-13T18:33:45.789Z,62.80
2023-11-13T18:36:20.213Z,61.20
2023-11-13T18:38:57.149Z,60.40
2023-11-13T18:41:31.353Z,62.50
2023-11-13T18:44:04.999Z,65.60
2023-11-13T18:46:39.061Z,66.10
2023-11-13T18:49:12.983Z,63.10
2023-11-13T18:51:46.889Z,63.40
2023-11-13T18:54:20.741Z,68.10
2023-11-13T18:56:54.962Z,58.80
2023-11-13T18:59:29.145Z,57.90
2023-11-13T19:02:03.340Z,62.70
2023-11-13T19:04:38.466Z,60.40
2023-11-13T19:07:12.436Z,54.00
2023-11-13T19:09:46.429Z,54.90
2023-11-13T19:12:20.438Z,55.30
2023-11-13T19:14:54.555Z,52.60
2023-11-13T19:17:29.055Z,52.50
2023-11-13T19:20:03.385Z,54.80
2023-11-13T19:22:37.177Z,47.20
2023-11-13T19:25:12.528Z,48.10
2023-11-13T19:27:46.439Z,46.80
2023-11-13T19:30:21.502Z,55.00
2023-11-13T19:33:01.343Z,49.90
2023-11-13T19:35:38.533Z,41.90
2023-11-13T19:38:12.826Z,44.50
2023-11-13T19:40:47.404Z,46.30
2023-11-13T19:43:23.085Z,44.40
2023-11-13T19:45:58.198Z,41.10
2023-11-13T19:48:33.133Z,42.90
2023-11-13T19:51:09.908Z,44.10
2023-11-13T19:53:44.962Z,42.80
2023-11-13T19:56:21.408Z,41.20
2023-11-13T19:58:55.943Z,40.10
2023-11-13T20:01:30.206Z,39.00
2023-11-13T20:04:05.205Z,43.80
2023-11-13T20:06:39.185Z,43.00
2023-11-13T20:09:16.099Z,47.00
2023-11-13T20:11:50.165Z,37.10
2023-11-13T20:14:25.530Z,37.70
2023-11-13T20:16:59.607Z,41.00
2023-11-13T20:19:33.812Z,39.30
2023-11-13T20:22:07.849Z,38.00
2023-11-13T20:24:41.715Z,37.80
2023-11-13T20:27:16.624Z,39.00
2023-11-13T20:30:03.801Z,35.60
2023-11-13T20:32:40.244Z,38.40
2023-11-13T20:35:17.842Z,39.50
2023-11-13T20:37:53.530Z,36.10
2023-11-13T20:40:27.751Z,38.30
2023-11-13T20:43:01.251Z,36.80
2023-11-13T20:45:34.939Z,41.30
2023-11-13T20:48:10.020Z,36.60
2023-11-13T20:50:44.257Z,34.40
2023-11-13T20:53:19.667Z,32.70
2023-11-13T20:55:53.634Z,35.50
2023-11-13T20:58:28.162Z,40.10
2023-11-13T21:01:01.881Z,38.70
2023-11-13T21:03:35.480Z,35.70
2023-11-13T21:06:09.816Z,35.70
2023-11-13T21:08:43.355Z,36.70
2023-11-13T21:11:17.670Z,34.80
2023-11-13T21:13:51.222Z,34.20
2023-11-13T21:16:25.897Z,35.20
2023-11-13T21:19:00.011Z,34.50
2023-11-13T21:21:36.187Z,35.30
2023-11-13T21:24:12.417Z,36.60
2023-11-13T21:26:46.076Z,33.40
2023-11-13T21:29:19.907Z,34.00
2023-11-13T21:31:55.657Z,34.30
2023-11-13T21:34:29.511Z,30.90
2023-11-13T21:37:03.460Z,33.50
2023-11-13T21:39:37.251Z,31.00
2023-11-13T21:42:11.955Z,31.90
2023-11-13T21:44:46.305Z,29.20
2023-11-13T21:47:19.843Z,32.60
2023-11-13T21:49:53.470Z,30.90
2023-11-13T21:52:26.992Z,33.40
2023-11-13T21:55:00.681Z,29.70
2023-11-13T21:57:34.605Z,29.00
2023-11-13T22:00:12.420Z,29.10
2023-11-13T22:02:48.170Z,30.90
2023-11-13T22:05:22.186Z,29.60
2023-11-13T22:07:55.794Z,33.10
2023-11-13T22:10:29.410Z,33.50
2023-11-13T22:13:03.585Z,29.30
2023-11-13T22:15:37.943Z,29.20
2023-11-13T22:18:11.896Z,29.70
2023-11-13T22:20:45.666Z,28.60
2023-11-13T22:23:19.353Z,34.40
2023-11-13T22:25:53.112Z,26.50
2023-11-13T22:28:26.790Z,30.10
2023-11-13T22:31:00.443Z,26.20
2023-11-13T22:33:34.178Z,25.20
2023-11-13T22:36:09.050Z,25.70
2023-11-13T22:38:42.658Z,26.80
2023-11-13T22:41:16.994Z,26.90
2023-11-13T22:43:50.612Z,26.70
2023-11-13T22:46:24.420Z,27.30
2023-11-13T22:48:58.068Z,27.60
2023-11-13T22:51:32.597Z,25.70
2023-11-13T22:54:06.414Z,26.40
2023-11-13T22:56:40.207Z,30.80
2023-11-13T22:59:14.152Z,26.10
2023-11-13T23:01:47.782Z,28.30
2023-11-13T23:04:21.839Z,29.60
2023-11-13T23:06:56.457Z,35.80
2023-11-13T23:09:30.428Z,37.40
2023-11-13T23:12:04.353Z,35.40
2023-11-13T23:14:40.866Z,37.10
2023-11-13T23:17:16.946Z,31.60
2023-11-13T23:19:50.547Z,34.30
2023-11-13T23:22:24.126Z,36.00
2023-11-13T23:24:57.860Z,33.50
2023-11-13T23:27:32.059Z,27.50
2023-11-13T23:30:09.460Z,28.30
2023-11-13T23:32:43.585Z,26.00
2023-11-13T23:35:17.522Z,27.40
2023-11-13T23:37:51.633Z,26.70
2023-11-13T23:40:26.024Z,23.20
2023-11-13T23:42:59.627Z,26.90
2023-11-13T23:45:34.028Z,24.20
2023-11-13T23:48:10.245Z,24.00
2023-11-13T23:50:43.957Z,22.10
2023-11-13T23:53:17.419Z,22.60
2023-11-13T23:55:50.906Z,21.00
2023-11-13T23:58:24.415Z,24.60
